Time;durP1;ratioP1;P1;durP2;ratioP2;P2;SDS_P1;SDS_P2;PMS_P1;PMS_P2;Temp;Humidity;BMP_temperature;BMP_pressure;BME280_temperature;BME280_humidity;BME280_pressure;Samples;Min_cycle;Max_cycle;Signal;HPM_P1;HPM_P2
2022/06/02 00:00:03;;;;;;;3.45;3.03;;;;;;;14.91;60.53;101310.09;5090786;28;20130;-50
2022/06/02 00:02:47;;;;;;;5.25;3.03;;;;;;;14.90;60.53;101309.22;5087681;28;20043;-53
2022/06/02 00:05:29;;;;;;;3.38;3.08;;;;;;;14.90;60.63;101317.19;5091668;28;20438;-52
2022/06/02 00:08:09;;;;;;;3.35;2.90;;;;;;;14.86;60.56;101313.06;5088938;28;20027;-53
2022/06/02 00:10:59;;;;;;;3.80;2.90;;;;;;;14.86;60.58;101318.34;5088273;28;20400;-53
2022/06/02 00:13:33;;;;;;;3.08;2.80;;;;;;;14.87;60.75;101316.53;5097996;28;20032;-53
2022/06/02 00:16:06;;;;;;;4.10;2.80;;;;;;;14.89;60.77;101323.47;5088274;28;20023;-52
2022/06/02 00:18:45;;;;;;;3.05;2.75;;;;;;;14.87;60.64;101322.69;5088566;28;20032;-53
2022/06/02 00:21:38;;;;;;;3.38;2.92;;;;;;;14.86;60.69;101322.78;5091406;28;20020;-54
2022/06/02 00:24:31;;;;;;;3.13;2.65;;;;;;;14.83;60.77;101326.50;5083472;28;20036;-53
2022/06/02 00:26:56;;;;;;;5.50;2.80;;;;;;;14.80;60.66;101329.34;5086456;28;20044;-53
2022/06/02 00:29:22;;;;;;;4.63;3.08;;;;;;;14.75;60.76;101323.50;5085834;28;20032;-51
2022/06/02 00:32:11;;;;;;;3.25;2.92;;;;;;;14.70;60.88;101333.56;5082899;28;20388;-54
2022/06/02 00:34:49;;;;;;;3.40;3.10;;;;;;;14.68;60.86;101333.66;5090633;28;20020;-54
2022/06/02 00:37:20;;;;;;;4.28;3.20;;;;;;;14.69;61.02;101331.88;5087447;28;20035;-53
2022/06/02 00:39:48;;;;;;;3.40;3.03;;;;;;;14.62;60.97;101336.69;5088400;28;20058;-53
2022/06/02 00:42:25;;;;;;;9.23;5.35;;;;;;;14.55;61.10;101335.38;5090978;28;20029;-53
2022/06/02 00:44:58;;;;;;;4.30;3.80;;;;;;;14.47;61.58;101338.53;5094083;28;20024;-50
2022/06/02 00:47:35;;;;;;;4.22;3.42;;;;;;;14.44;61.76;101331.63;5083309;28;20090;-53
2022/06/02 00:50:09;;;;;;;4.82;3.30;;;;;;;14.43;61.70;101342.34;5083117;28;20028;-53
2022/06/02 00:53:02;;;;;;;4.05;3.65;;;;;;;14.45;61.70;101345.72;5090371;28;20110;-53
2022/06/02 00:58:24;;;;;;;;;;;;;;;14.41;61.78;101354.81;5085430;28;20036;-50
2022/06/02 01:00:54;;;;;;;5.25;4.28;;;;;;;14.35;61.92;101360.50;5090680;28;19998;-52
2022/06/02 01:03:27;;;;;;;4.32;3.92;;;;;;;14.18;62.45;101365.94;5090056;28;20056;-54
2022/06/02 01:06:06;;;;;;;5.88;3.90;;;;;;;14.09;62.95;101365.66;5092977;28;20067;-52
2022/06/02 01:08:32;;;;;;;5.63;4.65;;;;;;;14.09;63.00;101365.66;5088455;28;20098;-51
2022/06/02 01:10:57;;;;;;;4.50;4.10;;;;;;;14.12;62.96;101371.59;5085576;28;20052;-52
2022/06/02 01:13:49;;;;;;;4.78;4.38;;;;;;;14.18;62.92;101371.22;5087909;28;20111;-54
2022/06/02 01:16:44;;;;;;;5.72;4.20;;;;;;;14.22;63.19;101382.47;5092445;28;20055;-53
2022/06/02 01:19:31;;;;;;;6.13;4.63;;;;;;;14.20;62.97;101376.41;5084406;28;20074;-53
2022/06/02 01:22:18;;;;;;;4.63;4.22;;;;;;;14.19;63.09;101387.94;5085443;28;20036;-52
2022/06/02 01:25:17;;;;;;;4.55;4.10;;;;;;;14.25;63.11;101384.91;5090508;28;20028;-52
2022/06/02 01:28:00;;;;;;;5.13;4.63;;;;;;;14.28;62.89;101389.16;5088249;28;20089;-52
2022/06/02 01:30:46;;;;;;;5.80;4.38;;;;;;;14.25;63.16;101382.25;5088924;28;20032;-53
2022/06/02 01:34:02;;;;;;;5.10;4.30;;;;;;;14.27;63.13;101385.66;5084920;28;20082;-51
2022/06/02 01:36:40;;;;;;;4.65;3.83;;;;;;;14.29;62.99;101386.41;5045765;28;20028;-53
2022/06/02 01:39:25;;;;;;;4.22;3.83;;;;;;;14.31;63.20;101387.16;5088192;28;20053;-52
2022/06/02 01:41:51;;;;;;;4.60;4.20;;;;;;;14.32;63.05;101391.50;5093702;28;20145;-52
2022/06/02 01:44:31;;;;;;;4.55;4.15;;;;;;;14.35;63.35;101387.84;5086818;28;20036;-53
2022/06/02 01:47:19;;;;;;;4.30;3.87;;;;;;;14.37;63.05;101391.22;5089683;28;20035;-51
2022/06/02 01:50:01;;;;;;;4.70;4.30;;;;;;;14.39;63.01;101380.53;5095759;28;20084;-52
2022/06/02 01:52:58;;;;;;;4.90;4.22;;;;;;;14.37;62.96;101385.91;5084703;28;20034;-50
2022/06/02 01:55:26;;;;;;;5.85;4.18;;;;;;;14.38;63.02;101384.13;5095750;28;20111;-51
2022/06/02 01:58:21;;;;;;;5.60;4.40;;;;;;;14.34;63.09;101383.47;5093174;28;20093;-53
2022/06/02 02:00:56;;;;;;;4.82;4.32;;;;;;;14.30;63.34;101384.63;5079811;28;20506;-51
2022/06/02 02:03:55;;;;;;;4.97;4.45;;;;;;;14.28;63.08;101394.44;5083934;28;20125;-50
2022/06/02 02:06:43;;;;;;;4.60;4.18;;;;;;;14.26;63.07;101391.91;5075977;28;20040;-50
2022/06/02 02:09:30;;;;;;;5.70;4.70;;;;;;;14.24;63.13;101390.28;5089298;28;20043;-53
2022/06/02 02:11:59;;;;;;;5.30;4.80;;;;;;;14.23;62.98;101394.75;5088354;28;20027;-53
2022/06/02 02:14:45;;;;;;;5.38;4.72;;;;;;;14.24;62.72;101391.16;5089514;28;20051;-54
2022/06/02 02:17:16;;;;;;;4.85;4.35;;;;;;;14.23;62.95;101394.75;5088800;28;20125;-53
2022/06/02 02:19:56;;;;;;;5.70;5.10;;;;;;;14.20;62.73;101400.22;5086330;28;20111;-53
2022/06/02 02:22:44;;;;;;;5.60;5.05;;;;;;;14.12;62.99;101397.22;5077778;28;20035;-54
2022/06/02 02:25:18;;;;;;;5.25;4.75;;;;;;;14.13;63.21;101396.28;5081982;28;20031;-50
2022/06/02 02:28:06;;;;;;;6.30;4.95;;;;;;;14.12;63.13;101392.75;5087255;28;20067;-53
2022/06/02 02:30:43;;;;;;;6.00;5.40;;;;;;;14.13;63.21;101393.63;5084890;28;20063;-51
2022/06/02 02:33:52;;;;;;;5.97;5.38;;;;;;;14.12;63.17;101395.41;5083203;28;20028;-52
2022/06/02 02:36:46;;;;;;;7.40;5.07;;;;;;;14.10;62.95;101393.81;5087780;28;20049;-52
2022/06/02 02:39:33;;;;;;;7.20;5.47;;;;;;;14.09;63.04;101397.41;5090491;28;20437;-52
2022/06/02 02:42:06;;;;;;;6.68;5.50;;;;;;;14.07;63.13;101394.84;5088260;28;20047;-51
2022/06/02 02:44:34;;;;;;;5.82;5.22;;;;;;;14.01;62.96;101392.59;5066075;28;20031;-50
2022/06/02 02:47:09;;;;;;;9.25;5.53;;;;;;;14.02;63.17;101399.59;5084913;28;20032;-51
2022/06/02 02:49:47;;;;;;;7.13;5.90;;;;;;;14.00;63.48;101399.66;5083262;28;20102;-52
2022/06/02 02:52:34;;;;;;;6.55;4.95;;;;;;;13.97;63.31;101405.16;5084228;28;20031;-52
2022/06/02 02:55:10;;;;;;;6.22;4.80;;;;;;;14.00;63.26;101402.31;5083342;28;20506;-54
2022/06/02 02:57:58;;;;;;;5.57;5.07;;;;;;;14.01;63.06;101406.66;5087932;28;20035;-52
2022/06/02 03:00:37;;;;;;;5.35;4.85;;;;;;;14.02;62.96;101405.72;5085366;28;20027;-51
2022/06/02 03:03:18;;;;;;;7.53;5.30;;;;;;;14.03;63.20;101415.34;5078130;28;20024;-52
2022/06/02 03:06:20;;;;;;;6.57;5.85;;;;;;;14.06;63.08;101413.47;5082846;28;20028;-53
2022/06/02 03:09:08;;;;;;;6.03;5.18;;;;;;;14.07;63.08;101423.09;5081188;28;20039;-50
2022/06/02 03:11:46;;;;;;;6.30;5.47;;;;;;;14.02;63.03;101418.09;5085001;28;20028;-50
2022/06/02 03:14:41;;;;;;;6.53;5.82;;;;;;;14.00;63.32;101426.13;5082488;28;20076;-50
2022/06/02 03:17:19;;;;;;;7.55;5.43;;;;;;;14.01;63.33;101425.19;5051053;28;20118;-53
2022/06/02 03:19:50;;;;;;;7.30;5.22;;;;;;;14.05;63.20;101432.94;5087552;28;20036;-50
2022/06/02 03:22:53;;;;;;;5.82;5.25;;;;;;;14.07;63.30;101438.97;5081884;28;20029;-53
2022/06/02 03:25:34;;;;;;;5.80;5.20;;;;;;;14.10;63.19;101444.09;5085263;28;20111;-52
2022/06/02 03:28:46;;;;;;;6.18;5.57;;;;;;;14.11;63.18;101441.34;5087817;28;20114;-53
2022/06/02 03:31:33;;;;;;;6.18;5.57;;;;;;;14.13;63.08;101450.03;5086155;28;20012;-53
2022/06/02 03:34:01;;;;;;;7.90;5.28;;;;;;;14.14;63.33;101464.97;5082077;28;20110;-52
2022/06/02 03:36:48;;;;;;;6.55;5.72;;;;;;;14.15;63.24;101465.81;5075702;28;20063;-53
2022/06/02 03:39:29;;;;;;;6.85;5.70;;;;;;;14.15;63.05;101456.09;5086406;28;20115;-51
2022/06/02 03:42:13;;;;;;;11.13;5.40;;;;;;;14.15;63.27;101465.81;5078731;28;20411;-52
2022/06/02 03:44:45;;;;;;;7.32;5.75;;;;;;;14.15;63.27;101453.44;5044486;28;1226316;-53
2022/06/02 03:47:37;;;;;;;5.25;4.80;;;;;;;14.16;62.94;101454.28;5084044;28;20661;-52
2022/06/02 03:50:15;;;;;;;5.13;4.63;;;;;;;14.18;63.12;101468.28;5086388;28;20546;-50
2022/06/02 03:53:13;;;;;;;5.70;4.80;;;;;;;14.16;62.90;101462.22;5084915;28;20523;-52
2022/06/02 03:55:57;;;;;;;6.00;5.40;;;;;;;14.16;63.02;101472.81;5068547;28;20044;-53
2022/06/02 03:58:22;;;;;;;5.50;5.00;;;;;;;14.14;62.88;101470.28;5084996;28;20613;-52
2022/06/02 04:00:53;;;;;;;5.78;5.28;;;;;;;14.13;62.89;101473.03;5084326;28;20032;-51
2022/06/02 04:03:41;;;;;;;6.30;5.70;;;;;;;14.11;63.09;101474.91;5086137;28;20036;-53
2022/06/02 04:06:21;;;;;;;17.47;6.93;;;;;;;14.09;63.17;101487.38;5085843;28;20030;-51
2022/06/02 04:09:19;;;;;;;6.15;5.55;;;;;;;14.07;63.21;101483.97;5088325;28;20043;-50
2022/06/02 04:14:52;;;;;;;6.28;4.97;;;;;;;14.03;63.11;101488.59;5078948;28;20175;-53
2022/06/02 04:17:46;;;;;;;9.93;5.50;;;;;;;14.00;63.40;101489.63;5087836;28;20085;-53
2022/06/02 04:20:42;;;;;;;8.63;6.78;;;;;;;14.02;63.41;101498.31;5084895;28;21722;-53
2022/06/02 04:23:49;;;;;;;6.15;5.55;;;;;;;14.00;63.42;101504.66;5080516;28;20504;-54
2022/06/02 04:26:59;;;;;;;6.53;5.28;;;;;;;13.98;63.37;101506.53;5074245;28;20217;-51
2022/06/02 04:29:55;;;;;;;5.80;5.20;;;;;;;13.95;63.35;101512.88;5078134;28;20040;-53
2022/06/02 04:32:55;;;;;;;6.05;5.45;;;;;;;13.96;63.38;101519.00;5077991;28;20368;-51
2022/06/02 04:35:41;;;;;;;7.47;5.45;;;;;;;13.96;63.47;101519.88;5076424;28;20025;-53
2022/06/02 04:38:15;;;;;;;6.82;5.78;;;;;;;14.01;63.68;101512.50;5079407;28;20074;-53
2022/06/02 04:40:52;;;;;;;7.90;6.30;;;;;;;14.05;63.65;101518.47;5078607;28;20064;-53
2022/06/02 04:44:09;;;;;;;6.82;5.97;;;;;;;14.05;63.55;101528.19;5088583;28;20095;-51
2022/06/02 04:46:56;;;;;;;7.40;6.15;;;;;;;14.04;63.78;101532.66;5005633;28;20038;-52
2022/06/02 04:49:47;;;;;;;6.80;6.10;;;;;;;14.05;63.87;101537.00;5079068;28;20054;-53
2022/06/02 04:52:25;;;;;;;8.20;5.90;;;;;;;14.07;63.66;101531.59;5089817;28;20100;-54
2022/06/02 04:55:22;;;;;;;7.68;6.72;;;;;;;14.06;63.74;101536.06;5081893;28;20490;-50
2022/06/02 04:58:00;;;;;;;9.07;7.13;;;;;;;14.02;63.62;101540.66;5075965;28;20051;-50
2022/06/02 05:00:44;;;;;;;8.38;7.25;;;;;;;14.06;63.54;101551.94;5083099;28;20099;-50
2022/06/02 05:03:23;;;;;;;10.75;8.23;;;;;;;14.09;63.68;101546.44;5087682;28;20069;-52
2022/06/02 05:06:03;;;;;;;9.10;7.47;;;;;;;14.12;63.65;101546.25;5093094;28;20070;-50
2022/06/02 05:08:58;;;;;;;8.82;7.93;;;;;;;14.14;63.38;101548.84;5092300;28;20021;-50
2022/06/02 05:11:40;;;;;;;9.02;8.05;;;;;;;14.13;63.73;101547.13;5090299;28;20034;-53
2022/06/02 05:14:16;;;;;;;12.80;9.80;;;;;;;14.14;63.68;101543.53;5092185;28;20028;-49
2022/06/02 05:17:07;;;;;;;13.32;8.60;;;;;;;14.17;63.75;101545.97;5088527;28;20032;-50
2022/06/02 05:19:41;;;;;;;10.35;9.20;;;;;;;14.15;63.65;101553.16;5087763;28;20066;-50
2022/06/02 05:22:17;;;;;;;13.15;9.73;;;;;;;14.14;63.71;101548.84;5093348;28;20031;-49
2022/06/02 05:24:51;;;;;;;10.73;9.63;;;;;;;14.12;63.61;101556.00;5094689;28;20032;-51
2022/06/02 05:28:03;;;;;;;9.82;8.65;;;;;;;14.12;63.70;101556.00;5091515;28;20020;-50
2022/06/02 05:31:04;;;;;;;10.43;9.32;;;;;;;14.14;63.48;101564.72;5092751;28;20081;-51
2022/06/02 05:33:50;;;;;;;11.57;9.23;;;;;;;14.12;63.18;101571.88;5094996;28;20142;-52
2022/06/02 05:36:48;;;;;;;12.63;10.10;;;;;;;14.09;63.51;101578.19;5092677;28;20042;-50
2022/06/02 05:39:22;;;;;;;11.20;9.93;;;;;;;14.06;63.67;101569.59;5096105;28;20089;-52
2022/06/02 05:42:07;;;;;;;10.85;9.75;;;;;;;14.06;63.82;101572.25;5097399;28;20055;-52
2022/06/02 05:44:58;;;;;;;12.38;9.82;;;;;;;14.10;63.81;101577.25;5090261;28;20034;-53
2022/06/02 05:47:49;;;;;;;10.75;9.13;;;;;;;14.15;63.53;101575.19;5094379;28;20035;-53
2022/06/02 05:50:14;;;;;;;11.73;10.50;;;;;;;14.16;63.24;101579.53;5088423;28;20036;-52
2022/06/02 05:52:52;;;;;;;10.45;9.35;;;;;;;14.15;63.41;101588.44;5090597;28;20023;-50
2022/06/02 05:56:09;;;;;;;15.68;10.98;;;;;;;14.14;63.71;101591.19;5098591;28;20023;-53
2022/06/02 05:59:05;;;;;;;12.25;10.82;;;;;;;14.16;63.41;101589.25;5027550;28;20030;-53
2022/06/02 06:01:42;;;;;;;12.43;9.50;;;;;;;14.20;63.78;101593.44;5027907;28;20048;-50
2022/06/02 06:04:55;;;;;;;10.05;9.05;;;;;;;14.26;63.66;101592.22;5080477;28;20044;-52
2022/06/02 06:08:14;;;;;;;11.95;9.68;;;;;;;14.37;63.44;101594.22;5086467;28;20404;-53
2022/06/02 06:10:40;;;;;;;11.38;9.60;;;;;;;14.47;63.14;101592.72;5051733;28;20029;-50
2022/06/02 06:13:42;;;;;;;12.50;10.52;;;;;;;14.51;62.92;101596.88;5086805;28;20044;-52
2022/06/02 06:16:16;;;;;;;12.32;10.75;;;;;;;14.48;62.94;101595.28;5087396;28;20031;-51
2022/06/02 06:18:48;;;;;;;11.38;9.57;;;;;;;14.48;63.27;101602.38;5092623;28;20043;-53
2022/06/02 06:21:39;;;;;;;13.70;10.25;;;;;;;14.51;63.61;101598.69;5090696;28;20609;-51
2022/06/02 06:24:16;;;;;;;16.30;10.32;;;;;;;14.61;63.60;101603.31;5083386;28;20036;-50
2022/06/02 06:26:53;;;;;;;12.73;9.75;;;;;;;14.72;63.51;101615.09;5087655;28;20023;-52
2022/06/02 06:29:44;;;;;;;11.00;9.82;;;;;;;14.79;63.03;101619.06;5085478;28;20593;-51
2022/06/02 06:32:54;;;;;;;13.45;9.77;;;;;;;14.79;63.00;101621.72;5094732;28;20024;-53
2022/06/02 06:36:12;;;;;;;12.48;10.32;;;;;;;14.77;62.51;101631.56;5091102;28;20020;-50
2022/06/02 06:39:02;;;;;;;11.82;9.93;;;;;;;14.74;62.71;101626.47;5048062;28;20109;-50
2022/06/02 06:41:46;;;;;;;14.30;9.98;;;;;;;14.67;63.06;101635.69;5092781;28;20024;-52
2022/06/02 06:44:23;;;;;;;12.38;10.05;;;;;;;14.64;63.17;101636.72;5082900;28;20052;-51
2022/06/02 06:47:20;;;;;;;10.50;9.27;;;;;;;14.55;63.30;101642.56;5090520;28;20024;-54
2022/06/02 06:49:51;;;;;;;13.32;9.77;;;;;;;14.53;63.09;101636.50;5083377;28;20031;-52
2022/06/02 06:52:55;;;;;;;11.85;10.60;;;;;;;14.51;63.05;101641.91;5085194;28;20070;-52
2022/06/02 06:55:49;;;;;;;10.93;9.48;;;;;;;14.47;63.26;101646.53;5084130;28;20106;-52
2022/06/02 06:58:29;;;;;;;10.65;9.00;;;;;;;14.54;63.05;101652.31;5095903;28;20107;-51
2022/06/02 07:01:15;;;;;;;13.40;8.82;;;;;;;14.63;62.72;101656.22;5087146;28;20502;-51
2022/06/02 07:03:55;;;;;;;10.55;8.85;;;;;;;14.64;62.55;101660.56;5091575;28;20028;-52
2022/06/02 07:06:23;;;;;;;12.73;9.60;;;;;;;14.57;62.71;101659.22;5093939;28;20048;-50
2022/06/02 07:09:14;;;;;;;14.07;9.27;;;;;;;14.58;62.87;101653.84;5087067;28;20027;-50
2022/06/02 07:15:11;;;;;;;11.77;9.68;;;;;;;14.81;62.60;101654.28;5090005;28;20441;-50
2022/06/02 07:17:51;;;;;;;12.88;9.27;;;;;;;14.89;62.46;101662.63;5090944;28;20016;-52
2022/06/02 07:20:35;;;;;;;9.82;8.77;;;;;;;14.94;62.03;101659.69;5088087;28;20098;-51
2022/06/02 07:23:11;;;;;;;11.40;8.60;;;;;;;15.00;62.07;101661.09;5082557;28;20020;-51
2022/06/02 07:25:45;;;;;;;10.50;8.98;;;;;;;15.06;61.74;101668.66;5087168;28;20027;-52
2022/06/02 07:28:24;;;;;;;10.63;8.95;;;;;;;15.13;61.66;101674.41;5086187;28;20024;-52
2022/06/02 07:31:24;;;;;;;9.07;7.90;;;;;;;15.15;61.42;101669.88;5088102;28;20035;-53
2022/06/02 07:34:03;;;;;;;9.95;7.70;;;;;;;15.19;61.53;101674.03;5089689;28;20070;-52
2022/06/02 07:36:38;;;;;;;10.25;8.48;;;;;;;15.24;61.34;101687.88;5091091;28;20043;-50
2022/06/02 07:39:42;;;;;;;195.43;33.90;;;;;;;15.24;60.96;101694.00;5087539;28;20043;-51
2022/06/02 07:42:38;;;;;;;10.63;8.63;;;;;;;15.21;61.17;101683.59;5077275;28;20503;-53
2022/06/02 07:45:21;;;;;;;11.43;8.18;;;;;;;15.21;61.20;101682.75;5086273;28;20028;-51
2022/06/02 07:48:05;;;;;;;10.18;8.68;;;;;;;15.20;61.21;101684.53;5086115;28;20042;-50
2022/06/02 07:50:33;;;;;;;12.70;7.75;;;;;;;15.20;60.81;101692.50;5087048;28;20039;-52
2022/06/02 07:53:22;;;;;;;11.40;8.30;;;;;;;15.18;61.17;101688.25;5093385;28;20067;-50
2022/06/02 07:55:50;;;;;;;9.27;7.47;;;;;;;15.21;61.14;101691.56;5084880;28;20016;-50
2022/06/02 07:58:25;;;;;;;8.68;7.45;;;;;;;15.26;60.89;101701.88;5098792;28;20020;-53
2022/06/02 08:01:29;;;;;;;8.32;6.82;;;;;;;15.29;60.49;101698.19;5086013;28;20035;-51
2022/06/02 08:04:27;;;;;;;9.68;6.78;;;;;;;15.32;60.51;101695.34;5089745;28;20118;-51
2022/06/02 08:06:59;;;;;;;7.55;6.80;;;;;;;15.35;60.52;101700.47;5069119;28;20517;-52
2022/06/02 08:09:47;;;;;;;7.25;6.53;;;;;;;15.43;60.09;101702.63;5087470;28;20027;-52
2022/06/02 08:12:26;;;;;;;9.20;5.80;;;;;;;15.53;59.90;101707.25;5090123;28;20079;-54
2022/06/02 08:15:07;;;;;;;6.97;6.28;;;;;;;15.64;59.18;101703.06;5089605;28;20016;-51
2022/06/02 08:17:42;;;;;;;6.72;5.57;;;;;;;15.69;58.86;101703.59;5088397;28;20028;-51
2022/06/02 08:20:13;;;;;;;7.85;5.65;;;;;;;15.70;58.53;101705.31;5091660;28;20039;-50
2022/06/02 08:23:07;;;;;;;6.60;5.95;;;;;;;15.74;58.58;101709.47;5093353;28;20479;-50
2022/06/02 08:26:02;;;;;;;11.38;5.72;;;;;;;15.79;58.16;101714.50;5088387;28;20019;-51
2022/06/02 08:28:30;;;;;;;8.00;5.57;;;;;;;15.83;58.23;101724.78;5094900;28;20068;-52
2022/06/02 08:31:16;;;;;;;6.18;5.57;;;;;;;15.87;57.93;101716.69;5094451;28;20023;-52
2022/06/02 08:34:10;;;;;;;6.43;5.00;;;;;;;15.88;57.64;101721.03;5095468;28;20031;-49
2022/06/02 08:37:05;;;;;;;6.05;4.50;;;;;;;15.92;56.81;101722.56;5095544;28;20036;-50
2022/06/02 08:39:59;;;;;;;7.90;4.47;;;;;;;15.90;56.02;101717.31;5093050;28;20043;-51
2022/06/02 08:42:33;;;;;;;5.18;4.05;;;;;;;15.92;56.05;101730.50;5094635;28;20024;-52
2022/06/02 08:45:23;;;;;;;5.40;4.10;;;;;;;15.93;55.37;101737.53;5091922;28;20163;-50
2022/06/02 08:48:08;;;;;;;5.38;3.95;;;;;;;15.95;55.40;101722.34;5095734;28;20055;-50
2022/06/02 08:51:08;;;;;;;4.93;3.95;;;;;;;15.97;55.19;101728.38;5089375;28;20074;-52
2022/06/02 08:54:02;;;;;;;7.35;3.90;;;;;;;15.98;54.85;101730.09;5090043;28;20069;-49
2022/06/02 08:57:03;;;;;;;5.53;3.75;;;;;;;16.02;54.45;101731.59;5086286;28;20295;-49
2022/06/02 09:00:14;;;;;;;5.40;3.78;;;;;;;16.08;54.07;101735.66;5091109;28;20039;-49
2022/06/02 09:02:42;;;;;;;;;;;;;;;16.08;54.49;101730.34;5085752;28;20417;-49
2022/06/02 09:05:39;;;;;;;5.00;3.38;;;;;;;16.13;54.25;101741.53;5092951;28;19919;-50
2022/06/02 09:08:14;;;;;;;7.90;4.00;;;;;;;16.19;53.90;101738.44;5098167;28;20032;-50
2022/06/02 09:11:01;;;;;;;6.25;3.97;;;;;;;16.33;51.78;101740.22;5087207;28;20964;-49
2022/06/02 09:14:05;;;;;;;8.68;3.72;;;;;;;16.43;52.67;101737.78;5094189;28;20035;-51
2022/06/02 09:16:56;;;;;;;5.57;3.10;;;;;;;16.57;53.15;101737.72;5092002;28;20029;-50
2022/06/02 09:19:33;;;;;;;10.77;3.50;;;;;;;16.66;52.83;101741.56;5092959;28;20024;-51
2022/06/02 09:22:17;;;;;;;4.70;3.08;;;;;;;16.72;52.03;101748.25;5091563;28;20038;-50
2022/06/02 09:25:33;;;;;;;4.38;3.22;;;;;;;16.73;51.75;101742.84;5091439;28;20407;-50
2022/06/02 09:28:40;;;;;;;3.80;3.03;;;;;;;16.77;51.51;101738.19;5009191;28;20064;-50
2022/06/02 09:31:17;;;;;;;3.88;3.20;;;;;;;16.77;50.73;101749.66;5072836;28;20040;-50
2022/06/02 09:34:14;;;;;;;3.40;2.65;;;;;;;16.76;50.38;101750.59;5094741;28;20115;-49
2022/06/02 09:36:55;;;;;;;3.25;2.20;;;;;;;16.74;49.53;101759.66;5072337;28;20081;-52
2022/06/02 09:39:38;;;;;;;4.32;2.38;;;;;;;16.73;49.02;101748.16;5088204;28;20472;-53
2022/06/02 09:42:34;;;;;;;3.45;2.80;;;;;;;16.70;48.92;101751.03;5088849;28;20031;-49
2022/06/02 09:45:28;;;;;;;3.78;2.28;;;;;;;16.73;48.93;101748.16;5088546;28;20024;-53
2022/06/02 09:47:56;;;;;;;3.78;2.38;;;;;;;16.79;48.91;101740.72;5092282;28;20039;-50
2022/06/02 09:50:43;;;;;;;3.33;2.10;;;;;;;16.86;48.73;101739.34;5087919;28;20024;-49
2022/06/02 09:53:51;;;;;;;5.00;2.03;;;;;;;16.99;48.34;101740.25;5088941;28;20042;-50
2022/06/02 09:56:28;;;;;;;2.72;2.42;;;;;;;17.08;47.89;101745.88;5089241;28;20021;-50
2022/06/02 09:59:14;;;;;;;4.90;1.85;;;;;;;17.22;48.00;101777.66;5098232;28;20031;-50
2022/06/02 10:02:13;;;;;;;3.35;1.85;;;;;;;17.26;47.14;101765.88;5079631;28;20491;-52
2022/06/02 10:05:15;;;;;;;2.20;2.00;;;;;;;17.21;47.19;101757.34;5092807;28;20062;-51
2022/06/02 10:07:54;;;;;;;2.55;1.80;;;;;;;17.25;46.80;101769.47;5090509;28;20031;-49
2022/06/02 10:10:40;;;;;;;3.15;1.50;;;;;;;17.28;46.57;101755.09;5088095;28;20111;-50
2022/06/02 10:13:23;;;;;;;3.45;1.80;;;;;;;17.31;46.72;101763.75;5088569;28;20034;-49
2022/06/02 10:16:03;;;;;;;4.82;1.95;;;;;;;17.26;46.44;101759.69;5091206;28;20024;-50
2022/06/02 10:18:32;;;;;;;3.72;1.80;;;;;;;17.26;46.40;101757.88;5086839;28;20090;-50
2022/06/02 10:21:27;;;;;;;2.15;1.77;;;;;;;17.28;46.34;101765.75;5090126;28;20114;-54
2022/06/02 10:24:21;;;;;;;159.70;21.15;;;;;;;17.32;45.95;101760.09;5090073;28;20034;-50
2022/06/02 10:26:49;;;;;;;83.22;9.88;;;;;;;17.35;46.24;101770.53;5058802;28;20035;-53
2022/06/02 10:29:29;;;;;;;;;;;;;;;17.36;46.32;101774.06;5090311;28;20052;-50
2022/06/02 10:32:04;;;;;;;4.20;2.23;;;;;;;17.33;46.14;101768.94;5085448;28;20439;-49
2022/06/02 10:35:00;;;;;;;3.33;2.00;;;;;;;17.19;46.61;101775.22;5077844;28;21330;-53
2022/06/02 10:37:41;;;;;;;5.43;2.40;;;;;;;17.05;46.96;101779.69;5081079;28;20587;-49
2022/06/02 10:40:16;;;;;;;4.72;2.00;;;;;;;17.01;46.73;101772.91;5091035;28;20384;-54
2022/06/02 10:43:19;;;;;;;3.33;1.88;;;;;;;17.03;46.67;101773.63;5084608;28;20118;-49
2022/06/02 10:46:00;;;;;;;2.50;1.65;;;;;;;17.08;46.67;101762.69;5063482;28;20051;-50
2022/06/02 10:48:51;;;;;;;3.20;1.30;;;;;;;17.19;45.17;101777.88;5085643;28;20035;-49
2022/06/02 10:51:38;;;;;;;2.10;1.30;;;;;;;17.28;43.78;101777.25;5083020;28;20032;-52
2022/06/02 10:54:41;;;;;;;3.55;1.25;;;;;;;17.33;43.95;101776.94;5079733;28;20031;-53
2022/06/02 10:57:19;;;;;;;3.33;1.30;;;;;;;17.46;43.92;101768.94;5081749;28;21449;-53
2022/06/02 11:00:19;;;;;;;1.35;1.20;;;;;;;17.64;43.92;101778.25;5081647;28;20024;-51
2022/06/02 11:02:59;;;;;;;3.35;1.23;;;;;;;17.78;43.39;101787.94;5084348;28;20036;-51
2022/06/02 11:05:59;;;;;;;2.78;1.55;;;;;;;17.83;43.28;101798.22;5086925;28;20491;-53
2022/06/02 11:08:39;;;;;;;5.97;1.50;;;;;;;17.84;43.05;101781.31;5077535;28;20036;-52
2022/06/02 11:11:33;;;;;;;2.47;1.20;;;;;;;17.89;43.16;101789.81;5086222;28;20031;-52
2022/06/02 11:14:20;;;;;;;1.80;1.30;;;;;;;17.99;43.01;101784.72;5082685;28;20062;-51
2022/06/02 11:17:19;;;;;;;3.72;1.33;;;;;;;18.09;42.25;101784.88;5092144;28;20024;-53
2022/06/02 11:20:25;;;;;;;2.63;1.30;;;;;;;18.10;42.42;101791.88;5084925;28;20529;-53
2022/06/02 11:23:06;;;;;;;2.88;1.20;;;;;;;18.13;41.80;101787.22;5087665;28;20047;-50
2022/06/02 11:25:49;;;;;;;1.42;0.88;;;;;;;18.21;41.82;101781.31;5082845;28;20024;-53
2022/06/02 11:28:27;;;;;;;1.60;0.95;;;;;;;18.28;40.66;101803.88;5090568;28;20032;-54
2022/06/02 11:31:16;;;;;;;0.80;0.80;;;;;;;18.36;39.90;101791.81;5086530;28;20025;-53
2022/06/02 11:33:53;;;;;;;109.18;14.90;;;;;;;18.38;40.34;101809.38;5090162;28;20029;-50
2022/06/02 11:36:37;;;;;;;4.70;1.40;;;;;;;18.36;40.17;101800.63;5088943;28;20027;-53
2022/06/02 11:39:23;;;;;;;2.70;1.02;;;;;;;18.30;40.55;101805.56;5084081;28;20135;-52
2022/06/02 11:42:09;;;;;;;1.85;0.85;;;;;;;18.14;40.57;101806.69;5082929;28;20116;-52
2022/06/02 11:44:46;;;;;;;1.30;1.20;;;;;;;18.07;41.01;101808.13;5089878;28;20024;-51
2022/06/02 11:47:33;;;;;;;2.58;0.80;;;;;;;18.05;40.36;101810.88;5087436;28;20502;-51
2022/06/02 11:50:55;;;;;;;0.98;0.90;;;;;;;18.07;39.73;101802.78;5083971;28;20077;-52
2022/06/02 11:53:53;;;;;;;1.42;0.90;;;;;;;18.12;39.93;101800.63;5005044;28;20644;-52
2022/06/02 11:56:46;;;;;;;1.50;1.05;;;;;;;18.13;39.95;101818.31;5004329;28;20043;-53
2022/06/02 11:59:32;;;;;;;1.33;0.70;;;;;;;18.10;39.91;101811.41;5072556;28;20040;-52
2022/06/02 12:02:15;;;;;;;4.07;1.00;;;;;;;18.13;39.54;101789.88;5083296;28;20376;-54
2022/06/02 12:04:56;;;;;;;0.68;0.68;;;;;;;18.17;38.95;101800.28;5083881;28;20046;-54
2022/06/02 12:07:40;;;;;;;3.90;0.80;;;;;;;18.28;38.58;101811.03;5086117;28;20045;-51
2022/06/02 12:10:30;;;;;;;0.95;0.85;;;;;;;18.34;38.04;101799.06;5094242;28;20020;-55
2022/06/02 12:13:17;;;;;;;1.48;0.80;;;;;;;18.38;38.29;101792.50;5088413;28;20498;-54
2022/06/02 12:15:58;;;;;;;3.33;1.65;;;;;;;18.46;38.11;101807.94;5079084;28;20020;-52
2022/06/02 12:18:31;;;;;;;3.33;1.63;;;;;;;18.51;38.39;101797.78;5085760;28;20028;-52
2022/06/02 12:21:18;;;;;;;1.40;0.90;;;;;;;18.56;38.02;101804.47;5083991;28;20039;-52
2022/06/02 12:23:58;;;;;;;3.70;1.00;;;;;;;18.58;37.71;101807.03;5088856;28;20024;-52
2022/06/02 12:26:29;;;;;;;7.03;0.80;;;;;;;18.57;37.60;101813.34;5096509;28;20491;-56
2022/06/02 12:28:58;;;;;;;2.05;0.80;;;;;;;18.58;36.86;101818.53;5089590;28;20440;-52
2022/06/02 12:31:51;;;;;;;2.42;0.90;;;;;;;18.57;36.85;101811.50;5089731;28;20066;-52
2022/06/02 12:34:44;;;;;;;2.10;0.90;;;;;;;18.57;36.57;101808.00;5090232;28;20082;-55
2022/06/02 12:37:32;;;;;;;4.47;0.80;;;;;;;18.56;36.95;101811.63;5087526;28;20035;-56
2022/06/02 12:40:28;;;;;;;3.38;0.90;;;;;;;18.65;36.85;101812.75;5090968;28;20039;-52
2022/06/02 12:42:59;;;;;;;0.98;0.70;;;;;;;18.80;36.87;101802.72;5091229;28;20031;-55
2022/06/02 12:45:44;;;;;;;3.13;0.93;;;;;;;18.98;36.45;101829.88;5086377;28;20060;-54
2022/06/02 12:48:33;;;;;;;1.88;0.70;;;;;;;19.07;36.25;101805.16;5088990;28;20395;-54
2022/06/02 12:51:26;;;;;;;2.25;0.90;;;;;;;19.12;35.85;101821.66;5086134;28;20115;-51
2022/06/02 12:54:29;;;;;;;1.20;0.80;;;;;;;19.14;36.21;101809.00;5089023;28;20051;-52
2022/06/02 12:57:19;;;;;;;2.15;0.80;;;;;;;19.15;36.14;101818.72;5055577;28;20039;-53